sensor_id;sensor_type;location;lat;lon;timestamp;P1;durP1;ratioP1;P2;durP2;ratioP2
22046;SDS011;11187;49.412;20.956;2022-09-09T00:00:32;27.98;;;25.98;;
22046;SDS011;11187;49.412;20.956;2022-09-09T00:06:33;30.30;;;28.10;;
22046;SDS011;11187;49.412;20.956;2022-09-09T00:09:47;27.65;;;25.02;;
22046;SDS011;11187;49.412;20.956;2022-09-09T00:16:02;31.15;;;28.48;;
22046;SDS011;11187;49.412;20.956;2022-09-09T00:19:07;31.02;;;28.30;;
22046;SDS011;11187;49.412;20.956;2022-09-09T00:21:57;30.85;;;28.27;;
22046;SDS011;11187;49.412;20.956;2022-09-09T00:24:56;31.10;;;28.60;;
22046;SDS011;11187;49.412;20.956;2022-09-09T00:30:37;29.40;;;27.15;;
22046;SDS011;11187;49.412;20.956;2022-09-09T00:33:11;28.13;;;26.15;;
22046;SDS011;11187;49.412;20.956;2022-09-09T00:36:09;29.55;;;27.13;;
22046;SDS011;11187;49.412;20.956;2022-09-09T00:38:52;28.55;;;26.17;;
22046;SDS011;11187;49.412;20.956;2022-09-09T00:41:48;29.52;;;27.50;;
22046;SDS011;11187;49.412;20.956;2022-09-09T00:44:30;28.95;;;26.77;;
22046;SDS011;11187;49.412;20.956;2022-09-09T00:47:38;27.30;;;25.30;;
22046;SDS011;11187;49.412;20.956;2022-09-09T01:09:26;28.90;;;26.33;;
22046;SDS011;11187;49.412;20.956;2022-09-09T01:12:42;29.45;;;27.23;;
22046;SDS011;11187;49.412;20.956;2022-09-09T01:15:18;28.10;;;26.00;;
22046;SDS011;11187;49.412;20.956;2022-09-09T01:18:20;29.70;;;27.42;;
22046;SDS011;11187;49.412;20.956;2022-09-09T01:21:22;28.52;;;26.40;;
22046;SDS011;11187;49.412;20.956;2022-09-09T01:27:33;29.13;;;26.70;;
22046;SDS011;11187;49.412;20.956;2022-09-09T01:30:37;28.40;;;26.27;;
22046;SDS011;11187;49.412;20.956;2022-09-09T01:33:15;28.42;;;26.35;;
22046;SDS011;11187;49.412;20.956;2022-09-09T01:36:08;29.63;;;27.33;;
22046;SDS011;11187;49.412;20.956;2022-09-09T01:38:46;27.95;;;25.98;;
22046;SDS011;11187;49.412;20.956;2022-09-09T01:41:40;28.67;;;26.50;;
22046;SDS011;11187;49.412;20.956;2022-09-09T01:44:13;28.27;;;26.10;;
22046;SDS011;11187;49.412;20.956;2022-09-09T01:47:00;28.90;;;26.50;;
22046;SDS011;11187;49.412;20.956;2022-09-09T01:49:33;29.80;;;27.48;;
22046;SDS011;11187;49.412;20.956;2022-09-09T01:52:20;29.65;;;26.92;;
22046;SDS011;11187;49.412;20.956;2022-09-09T01:54:53;28.65;;;26.33;;
22046;SDS011;11187;49.412;20.956;2022-09-09T02:01:08;29.48;;;27.15;;
22046;SDS011;11187;49.412;20.956;2022-09-09T02:04:08;28.90;;;26.83;;
22046;SDS011;11187;49.412;20.956;2022-09-09T02:07:30;28.40;;;26.30;;
22046;SDS011;11187;49.412;20.956;2022-09-09T02:10:30;29.17;;;26.60;;
22046;SDS011;11187;49.412;20.956;2022-09-09T02:13:16;28.52;;;26.23;;
22046;SDS011;11187;49.412;20.956;2022-09-09T02:18:50;29.10;;;26.90;;
22046;SDS011;11187;49.412;20.956;2022-09-09T02:21:59;29.38;;;27.17;;
22046;SDS011;11187;49.412;20.956;2022-09-09T02:24:54;27.98;;;25.98;;
22046;SDS011;11187;49.412;20.956;2022-09-09T02:27:52;29.70;;;27.58;;
22046;SDS011;11187;49.412;20.956;2022-09-09T02:30:26;31.50;;;29.10;;
22046;SDS011;11187;49.412;20.956;2022-09-09T02:33:16;28.27;;;26.15;;
22046;SDS011;11187;49.412;20.956;2022-09-09T02:35:50;28.50;;;26.15;;
22046;SDS011;11187;49.412;20.956;2022-09-09T02:38:45;27.55;;;25.45;;
22046;SDS011;11187;49.412;20.956;2022-09-09T02:41:24;30.05;;;27.95;;
22046;SDS011;11187;49.412;20.956;2022-09-09T02:44:23;30.50;;;28.20;;
22046;SDS011;11187;49.412;20.956;2022-09-09T02:55:44;31.75;;;29.13;;
22046;SDS011;11187;49.412;20.956;2022-09-09T02:58:20;27.33;;;25.52;;
22046;SDS011;11187;49.412;20.956;2022-09-09T03:01:08;25.33;;;23.73;;
22046;SDS011;11187;49.412;20.956;2022-09-09T03:03:43;24.85;;;23.25;;
22046;SDS011;11187;49.412;20.956;2022-09-09T03:06:30;23.67;;;22.08;;
22046;SDS011;11187;49.412;20.956;2022-09-09T03:09:24;25.90;;;24.30;;
22046;SDS011;11187;49.412;20.956;2022-09-09T03:12:19;24.23;;;22.70;;
22046;SDS011;11187;49.412;20.956;2022-09-09T03:14:52;24.52;;;22.83;;
22046;SDS011;11187;49.412;20.956;2022-09-09T03:17:46;25.92;;;23.77;;
22046;SDS011;11187;49.412;20.956;2022-09-09T03:20:43;27.27;;;25.15;;
22046;SDS011;11187;49.412;20.956;2022-09-09T03:23:16;24.38;;;22.88;;
22046;SDS011;11187;49.412;20.956;2022-09-09T03:26:10;26.15;;;24.35;;
22046;SDS011;11187;49.412;20.956;2022-09-09T03:28:46;27.05;;;25.15;;
22046;SDS011;11187;49.412;20.956;2022-09-09T03:31:39;23.80;;;22.27;;
22046;SDS011;11187;49.412;20.956;2022-09-09T03:34:13;25.40;;;23.80;;
22046;SDS011;11187;49.412;20.956;2022-09-09T03:37:06;27.42;;;25.73;;
22046;SDS011;11187;49.412;20.956;2022-09-09T03:40:00;26.20;;;24.40;;
22046;SDS011;11187;49.412;20.956;2022-09-09T03:42:56;25.83;;;23.98;;
22046;SDS011;11187;49.412;20.956;2022-09-09T03:45:50;26.02;;;24.20;;
22046;SDS011;11187;49.412;20.956;2022-09-09T03:48:26;28.45;;;26.02;;
22046;SDS011;11187;49.412;20.956;2022-09-09T03:51:20;28.35;;;26.35;;
22046;SDS011;11187;49.412;20.956;2022-09-09T03:54:14;29.02;;;26.77;;
22046;SDS011;11187;49.412;20.956;2022-09-09T03:56:47;26.63;;;24.80;;
22046;SDS011;11187;49.412;20.956;2022-09-09T03:59:34;26.30;;;24.25;;
22046;SDS011;11187;49.412;20.956;2022-09-09T04:02:15;26.35;;;24.42;;
22046;SDS011;11187;49.412;20.956;2022-09-09T04:05:09;28.38;;;25.92;;
22046;SDS011;11187;49.412;20.956;2022-09-09T04:07:42;26.83;;;24.80;;
22046;SDS011;11187;49.412;20.956;2022-09-09T04:10:37;23.77;;;22.10;;
22046;SDS011;11187;49.412;20.956;2022-09-09T04:13:35;23.98;;;22.27;;
22046;SDS011;11187;49.412;20.956;2022-09-09T04:16:32;25.05;;;23.05;;
22046;SDS011;11187;49.412;20.956;2022-09-09T04:19:26;23.90;;;21.95;;
22046;SDS011;11187;49.412;20.956;2022-09-09T04:21:59;28.23;;;25.88;;
22046;SDS011;11187;49.412;20.956;2022-09-09T04:24:53;23.30;;;21.45;;
22046;SDS011;11187;49.412;20.956;2022-09-09T04:27:47;23.20;;;21.40;;
22046;SDS011;11187;49.412;20.956;2022-09-09T04:30:26;25.23;;;23.52;;
22046;SDS011;11187;49.412;20.956;2022-09-09T04:33:23;24.17;;;22.58;;
22046;SDS011;11187;49.412;20.956;2022-09-09T04:36:05;22.05;;;20.35;;
22046;SDS011;11187;49.412;20.956;2022-09-09T04:38:53;25.02;;;23.23;;
22046;SDS011;11187;49.412;20.956;2022-09-09T04:41:27;27.90;;;25.95;;
22046;SDS011;11187;49.412;20.956;2022-09-09T04:44:15;24.33;;;22.63;;
22046;SDS011;11187;49.412;20.956;2022-09-09T04:46:48;25.25;;;23.60;;
22046;SDS011;11187;49.412;20.956;2022-09-09T04:49:35;27.02;;;24.90;;
22046;SDS011;11187;49.412;20.956;2022-09-09T04:52:10;25.08;;;23.38;;
22046;SDS011;11187;49.412;20.956;2022-09-09T04:54:57;22.85;;;21.38;;
22046;SDS011;11187;49.412;20.956;2022-09-09T04:57:32;21.70;;;20.27;;
22046;SDS011;11187;49.412;20.956;2022-09-09T05:00:27;25.75;;;24.05;;
22046;SDS011;11187;49.412;20.956;2022-09-09T05:03:22;22.90;;;21.20;;
22046;SDS011;11187;49.412;20.956;2022-09-09T05:06:02;23.08;;;21.58;;
22046;SDS011;11187;49.412;20.956;2022-09-09T05:08:49;24.55;;;22.77;;
22046;SDS011;11187;49.412;20.956;2022-09-09T05:11:25;20.38;;;18.98;;
22046;SDS011;11187;49.412;20.956;2022-09-09T05:14:19;21.83;;;20.25;;
22046;SDS011;11187;49.412;20.956;2022-09-09T05:16:54;21.25;;;19.85;;
22046;SDS011;11187;49.412;20.956;2022-09-09T05:19:43;20.30;;;19.00;;
22046;SDS011;11187;49.412;20.956;2022-09-09T05:22:20;21.17;;;19.67;;
22046;SDS011;11187;49.412;20.956;2022-09-09T05:25:13;21.55;;;20.05;;
22046;SDS011;11187;49.412;20.956;2022-09-09T05:28:08;21.85;;;20.23;;
22046;SDS011;11187;49.412;20.956;2022-09-09T05:31:05;19.50;;;18.20;;
22046;SDS011;11187;49.412;20.956;2022-09-09T05:34:01;22.77;;;21.30;;
22046;SDS011;11187;49.412;20.956;2022-09-09T05:36:55;19.80;;;18.15;;
22046;SDS011;11187;49.412;20.956;2022-09-09T05:39:30;20.02;;;18.33;;
22046;SDS011;11187;49.412;20.956;2022-09-09T05:42:16;24.17;;;22.42;;
22046;SDS011;11187;49.412;20.956;2022-09-09T05:44:50;20.05;;;18.75;;
22046;SDS011;11187;49.412;20.956;2022-09-09T05:47:37;21.17;;;19.70;;
22046;SDS011;11187;49.412;20.956;2022-09-09T05:50:11;24.77;;;22.98;;
22046;SDS011;11187;49.412;20.956;2022-09-09T05:52:54;22.45;;;20.83;;
22046;SDS011;11187;49.412;20.956;2022-09-09T05:55:33;21.75;;;20.35;;
22046;SDS011;11187;49.412;20.956;2022-09-09T05:58:07;22.23;;;20.80;;
22046;SDS011;11187;49.412;20.956;2022-09-09T06:00:59;22.63;;;20.92;;
22046;SDS011;11187;49.412;20.956;2022-09-09T06:03:40;24.55;;;22.75;;
22046;SDS011;11187;49.412;20.956;2022-09-09T06:06:32;24.58;;;22.73;;
22046;SDS011;11187;49.412;20.956;2022-09-09T06:09:28;21.15;;;19.85;;
22046;SDS011;11187;49.412;20.956;2022-09-09T06:12:22;24.10;;;22.50;;
22046;SDS011;11187;49.412;20.956;2022-09-09T06:15:16;21.73;;;20.33;;
22046;SDS011;11187;49.412;20.956;2022-09-09T06:18:10;21.83;;;20.27;;
22046;SDS011;11187;49.412;20.956;2022-09-09T06:21:05;22.45;;;20.90;;
22046;SDS011;11187;49.412;20.956;2022-09-09T06:23:42;23.45;;;21.70;;
22046;SDS011;11187;49.412;20.956;2022-09-09T06:26:32;20.52;;;19.20;;
22046;SDS011;11187;49.412;20.956;2022-09-09T06:29:08;21.15;;;19.55;;
22046;SDS011;11187;49.412;20.956;2022-09-09T06:31:55;22.35;;;20.95;;
22046;SDS011;11187;49.412;20.956;2022-09-09T06:34:29;25.15;;;23.55;;
22046;SDS011;11187;49.412;20.956;2022-09-09T06:37:16;24.80;;;22.98;;
22046;SDS011;11187;49.412;20.956;2022-09-09T06:39:50;21.42;;;19.92;;
22046;SDS011;11187;49.412;20.956;2022-09-09T06:42:43;25.50;;;23.65;;
22046;SDS011;11187;49.412;20.956;2022-09-09T06:45:17;22.42;;;21.02;;
22046;SDS011;11187;49.412;20.956;2022-09-09T06:48:10;21.70;;;20.27;;
22046;SDS011;11187;49.412;20.956;2022-09-09T06:51:06;21.63;;;20.05;;
22046;SDS011;11187;49.412;20.956;2022-09-09T06:54:02;21.80;;;20.30;;
22046;SDS011;11187;49.412;20.956;2022-09-09T06:56:38;25.42;;;23.15;;
22046;SDS011;11187;49.412;20.956;2022-09-09T06:59:25;23.20;;;21.60;;
22046;SDS011;11187;49.412;20.956;2022-09-09T07:01:59;23.10;;;21.55;;
22046;SDS011;11187;49.412;20.956;2022-09-09T07:04:45;21.58;;;20.10;;
22046;SDS011;11187;49.412;20.956;2022-09-09T07:07:19;23.55;;;22.05;;
22046;SDS011;11187;49.412;20.956;2022-09-09T07:10:06;21.05;;;19.52;;
22046;SDS011;11187;49.412;20.956;2022-09-09T07:12:40;22.95;;;21.35;;
22046;SDS011;11187;49.412;20.956;2022-09-09T07:15:26;24.50;;;22.90;;
22046;SDS011;11187;49.412;20.956;2022-09-09T07:18:03;22.10;;;20.60;;
22046;SDS011;11187;49.412;20.956;2022-09-09T07:20:58;23.25;;;21.75;;
22046;SDS011;11187;49.412;20.956;2022-09-09T07:23:32;23.48;;;21.85;;
22046;SDS011;11187;49.412;20.956;2022-09-09T07:26:20;24.70;;;23.17;;
22046;SDS011;11187;49.412;20.956;2022-09-09T07:28:56;22.95;;;21.45;;
22046;SDS011;11187;49.412;20.956;2022-09-09T07:31:42;22.63;;;21.10;;
22046;SDS011;11187;49.412;20.956;2022-09-09T07:34:16;23.60;;;21.80;;
22046;SDS011;11187;49.412;20.956;2022-09-09T07:37:02;23.95;;;22.45;;
22046;SDS011;11187;49.412;20.956;2022-09-09T07:39:36;21.10;;;19.70;;
22046;SDS011;11187;49.412;20.956;2022-09-09T07:42:29;19.50;;;17.92;;
22046;SDS011;11187;49.412;20.956;2022-09-09T07:45:03;22.73;;;21.25;;
22046;SDS011;11187;49.412;20.956;2022-09-09T07:47:50;22.58;;;21.00;;
22046;SDS011;11187;49.412;20.956;2022-09-09T07:50:25;20.67;;;19.30;;
22046;SDS011;11187;49.412;20.956;2022-09-09T07:53:18;21.48;;;19.85;;
22046;SDS011;11187;49.412;20.956;2022-09-09T07:55:53;21.10;;;19.42;;
22046;SDS011;11187;49.412;20.956;2022-09-09T07:58:46;22.70;;;21.30;;
22046;SDS011;11187;49.412;20.956;2022-09-09T08:01:50;18.98;;;17.58;;
22046;SDS011;11187;49.412;20.956;2022-09-09T08:04:27;19.58;;;17.92;;
22046;SDS011;11187;49.412;20.956;2022-09-09T08:07:14;20.92;;;19.52;;
22046;SDS011;11187;49.412;20.956;2022-09-09T08:10:08;22.30;;;20.55;;
22046;SDS011;11187;49.412;20.956;2022-09-09T08:13:02;19.63;;;18.27;;
22046;SDS011;11187;49.412;20.956;2022-09-09T08:15:44;19.40;;;18.20;;
22046;SDS011;11187;49.412;20.956;2022-09-09T08:18:30;19.35;;;18.00;;
22046;SDS011;11187;49.412;20.956;2022-09-09T08:21:04;19.98;;;18.67;;
22046;SDS011;11187;49.412;20.956;2022-09-09T08:24:00;19.77;;;18.15;;
22046;SDS011;11187;49.412;20.956;2022-09-09T08:26:54;22.42;;;21.02;;
22046;SDS011;11187;49.412;20.956;2022-09-09T08:29:29;19.70;;;18.27;;
22046;SDS011;11187;49.412;20.956;2022-09-09T08:32:17;19.70;;;18.20;;
22046;SDS011;11187;49.412;20.956;2022-09-09T08:34:52;18.48;;;17.27;;
22046;SDS011;11187;49.412;20.956;2022-09-09T08:37:46;19.08;;;17.73;;
22046;SDS011;11187;49.412;20.956;2022-09-09T08:40:22;18.70;;;17.50;;
22046;SDS011;11187;49.412;20.956;2022-09-09T08:43:15;20.42;;;18.90;;
22046;SDS011;11187;49.412;20.956;2022-09-09T08:51:28;18.73;;;17.23;;
22046;SDS011;11187;49.412;20.956;2022-09-09T08:54:18;18.60;;;17.40;;
22046;SDS011;11187;49.412;20.956;2022-09-09T08:57:14;20.10;;;18.63;;
22046;SDS011;11187;49.412;20.956;2022-09-09T09:00:14;18.90;;;17.63;;
22046;SDS011;11187;49.412;20.956;2022-09-09T09:06:19;20.45;;;19.05;;
22046;SDS011;11187;49.412;20.956;2022-09-09T09:12:35;20.38;;;18.80;;
22046;SDS011;11187;49.412;20.956;2022-09-09T09:15:36;19.33;;;17.95;;
22046;SDS011;11187;49.412;20.956;2022-09-09T09:18:31;20.85;;;19.55;;
22046;SDS011;11187;49.412;20.956;2022-09-09T09:21:16;23.27;;;21.50;;
22046;SDS011;11187;49.412;20.956;2022-09-09T09:24:16;20.35;;;18.50;;
22046;SDS011;11187;49.412;20.956;2022-09-09T09:26:53;18.95;;;17.65;;
22046;SDS011;11187;49.412;20.956;2022-09-09T09:29:47;21.25;;;19.77;;
22046;SDS011;11187;49.412;20.956;2022-09-09T09:33:04;21.15;;;19.85;;
22046;SDS011;11187;49.412;20.956;2022-09-09T09:35:48;20.38;;;18.85;;
22046;SDS011;11187;49.412;20.956;2022-09-09T09:38:55;19.70;;;18.15;;
22046;SDS011;11187;49.412;20.956;2022-09-09T09:41:53;20.38;;;18.98;;
22046;SDS011;11187;49.412;20.956;2022-09-09T09:44:45;18.70;;;17.50;;
22046;SDS011;11187;49.412;20.956;2022-09-09T09:47:19;19.42;;;18.15;;
22046;SDS011;11187;49.412;20.956;2022-09-09T09:50:18;21.92;;;20.52;;
22046;SDS011;11187;49.412;20.956;2022-09-09T09:52:54;20.75;;;19.40;;
22046;SDS011;11187;49.412;20.956;2022-09-09T09:55:44;19.52;;;18.13;;
22046;SDS011;11187;49.412;20.956;2022-09-09T09:58:26;18.80;;;17.30;;
22046;SDS011;11187;49.412;20.956;2022-09-09T10:01:29;19.13;;;17.73;;
22046;SDS011;11187;49.412;20.956;2022-09-09T10:07:20;19.00;;;17.77;;
22046;SDS011;11187;49.412;20.956;2022-09-09T10:10:19;21.33;;;19.90;;
22046;SDS011;11187;49.412;20.956;2022-09-09T10:13:37;20.58;;;19.20;;
22046;SDS011;11187;49.412;20.956;2022-09-09T10:19:31;19.98;;;18.58;;
22046;SDS011;11187;49.412;20.956;2022-09-09T10:22:28;21.02;;;19.65;;
22046;SDS011;11187;49.412;20.956;2022-09-09T10:25:20;22.38;;;20.65;;
22046;SDS011;11187;49.412;20.956;2022-09-09T10:36:56;21.75;;;20.15;;
22046;SDS011;11187;49.412;20.956;2022-09-09T10:39:50;20.73;;;19.05;;
22046;SDS011;11187;49.412;20.956;2022-09-09T10:43:42;21.23;;;19.63;;
22046;SDS011;11187;49.412;20.956;2022-09-09T10:49:09;19.52;;;18.25;;
22046;SDS011;11187;49.412;20.956;2022-09-09T10:52:21;19.98;;;18.73;;
22046;SDS011;11187;49.412;20.956;2022-09-09T10:55:24;21.25;;;19.65;;
22046;SDS011;11187;49.412;20.956;2022-09-09T10:58:02;20.20;;;18.90;;
22046;SDS011;11187;49.412;20.956;2022-09-09T11:01:01;19.77;;;18.48;;
22046;SDS011;11187;49.412;20.956;2022-09-09T11:03:40;19.65;;;18.27;;
22046;SDS011;11187;49.412;20.956;2022-09-09T11:06:40;19.17;;;17.75;;
22046;SDS011;11187;49.412;20.956;2022-09-09T11:09:42;17.67;;;16.48;;
22046;SDS011;11187;49.412;20.956;2022-09-09T11:12:42;22.23;;;20.50;;
22046;SDS011;11187;49.412;20.956;2022-09-09T11:15:23;18.77;;;17.58;;
22046;SDS011;11187;49.412;20.956;2022-09-09T11:18:19;19.30;;;17.65;;
22046;SDS011;11187;49.412;20.956;2022-09-09T11:20:56;18.55;;;17.25;;
22046;SDS011;11187;49.412;20.956;2022-09-09T11:23:49;19.75;;;18.45;;
22046;SDS011;11187;49.412;20.956;2022-09-09T11:29:52;18.00;;;16.80;;
22046;SDS011;11187;49.412;20.956;2022-09-09T11:42:29;19.13;;;17.92;;
22046;SDS011;11187;49.412;20.956;2022-09-09T11:45:24;18.98;;;17.65;;
22046;SDS011;11187;49.412;20.956;2022-09-09T11:48:23;19.20;;;17.92;;
22046;SDS011;11187;49.412;20.956;2022-09-09T11:51:00;18.38;;;17.25;;
22046;SDS011;11187;49.412;20.956;2022-09-09T11:53:59;19.58;;;18.38;;
22046;SDS011;11187;49.412;20.956;2022-09-09T11:59:29;21.15;;;19.85;;
22046;SDS011;11187;49.412;20.956;2022-09-09T12:02:14;18.92;;;17.73;;
22046;SDS011;11187;49.412;20.956;2022-09-09T12:05:11;17.95;;;16.65;;
22046;SDS011;11187;49.412;20.956;2022-09-09T12:07:51;18.70;;;17.40;;
22046;SDS011;11187;49.412;20.956;2022-09-09T12:10:52;18.90;;;17.70;;
22046;SDS011;11187;49.412;20.956;2022-09-09T12:13:27;20.50;;;19.20;;
22046;SDS011;11187;49.412;20.956;2022-09-09T12:19:18;21.52;;;20.23;;
22046;SDS011;11187;49.412;20.956;2022-09-09T12:22:11;18.77;;;17.58;;
22046;SDS011;11187;49.412;20.956;2022-09-09T12:32:15;18.25;;;16.98;;
22046;SDS011;11187;49.412;20.956;2022-09-09T12:34:54;18.17;;;16.98;;
22046;SDS011;11187;49.412;20.956;2022-09-09T12:37:55;20.90;;;19.60;;
22046;SDS011;11187;49.412;20.956;2022-09-09T12:40:55;18.70;;;17.40;;
22046;SDS011;11187;49.412;20.956;2022-09-09T12:43:30;18.35;;;17.05;;
22046;SDS011;11187;49.412;20.956;2022-09-09T12:46:26;19.98;;;18.77;;
22046;SDS011;11187;49.412;20.956;2022-09-09T12:52:31;19.88;;;18.60;;
22046;SDS011;11187;49.412;20.956;2022-09-09T12:55:15;20.33;;;18.83;;
22046;SDS011;11187;49.412;20.956;2022-09-09T12:58:05;21.63;;;20.23;;
22046;SDS011;11187;49.412;20.956;2022-09-09T13:00:48;22.10;;;20.70;;
22046;SDS011;11187;49.412;20.956;2022-09-09T13:03:43;20.13;;;18.63;;
22046;SDS011;11187;49.412;20.956;2022-09-09T13:06:36;19.40;;;18.13;;
22046;SDS011;11187;49.412;20.956;2022-09-09T13:09:10;20.55;;;19.10;;
22046;SDS011;11187;49.412;20.956;2022-09-09T13:11:56;20.10;;;18.90;;
22046;SDS011;11187;49.412;20.956;2022-09-09T13:14:32;20.38;;;18.92;;
22046;SDS011;11187;49.412;20.956;2022-09-09T13:17:24;21.27;;;19.88;;
22046;SDS011;11187;49.412;20.956;2022-09-09T13:20:01;19.65;;;18.45;;
22046;SDS011;11187;49.412;20.956;2022-09-09T13:22:48;17.48;;;16.42;;
22046;SDS011;11187;49.412;20.956;2022-09-09T13:25:24;17.85;;;16.75;;
22046;SDS011;11187;49.412;20.956;2022-09-09T13:28:18;18.20;;;17.10;;
22046;SDS011;11187;49.412;20.956;2022-09-09T13:31:03;20.25;;;18.95;;
22046;SDS011;11187;49.412;20.956;2022-09-09T13:33:51;18.17;;;17.08;;
22046;SDS011;11187;49.412;20.956;2022-09-09T13:36:29;19.30;;;18.00;;
22046;SDS011;11187;49.412;20.956;2022-09-09T13:39:25;19.40;;;18.20;;
22046;SDS011;11187;49.412;20.956;2022-09-09T13:41:59;19.45;;;18.25;;
22046;SDS011;11187;49.412;20.956;2022-09-09T13:44:54;18.20;;;17.10;;
22046;SDS011;11187;49.412;20.956;2022-09-09T13:47:33;19.05;;;17.75;;
22046;SDS011;11187;49.412;20.956;2022-09-09T13:50:29;20.40;;;18.90;;
22046;SDS011;11187;49.412;20.956;2022-09-09T13:53:02;18.10;;;17.00;;
22046;SDS011;11187;49.412;20.956;2022-09-09T13:55:49;19.02;;;17.90;;
22046;SDS011;11187;49.412;20.956;2022-09-09T13:58:24;19.25;;;18.05;;
22046;SDS011;11187;49.412;20.956;2022-09-09T14:01:11;21.65;;;19.92;;
22046;SDS011;11187;49.412;20.956;2022-09-09T14:03:45;20.08;;;18.75;;
22046;SDS011;11187;49.412;20.956;2022-09-09T14:06:33;20.10;;;18.70;;
22046;SDS011;11187;49.412;20.956;2022-09-09T14:09:12;17.98;;;16.88;;
22046;SDS011;11187;49.412;20.956;2022-09-09T14:11:59;19.00;;;17.80;;
22046;SDS011;11187;49.412;20.956;2022-09-09T14:14:33;18.48;;;17.27;;
22046;SDS011;11187;49.412;20.956;2022-09-09T14:17:28;19.65;;;18.35;;
22046;SDS011;11187;49.412;20.956;2022-09-09T14:20:04;21.52;;;19.75;;
22046;SDS011;11187;49.412;20.956;2022-09-09T14:22:54;21.30;;;20.00;;
22046;SDS011;11187;49.412;20.956;2022-09-09T14:25:30;18.30;;;17.02;;
22046;SDS011;11187;49.412;20.956;2022-09-09T14:28:23;18.77;;;17.60;;
22046;SDS011;11187;49.412;20.956;2022-09-09T14:31:33;18.55;;;17.42;;
22046;SDS011;11187;49.412;20.956;2022-09-09T14:34:07;19.90;;;18.60;;
22046;SDS011;11187;49.412;20.956;2022-09-09T14:37:01;17.08;;;15.93;;
22046;SDS011;11187;49.412;20.956;2022-09-09T14:39:34;17.50;;;16.42;;
22046;SDS011;11187;49.412;20.956;2022-09-09T14:42:29;19.58;;;18.27;;
22046;SDS011;11187;49.412;20.956;2022-09-09T14:45:24;18.13;;;16.92;;
22046;SDS011;11187;49.412;20.956;2022-09-09T14:48:17;17.85;;;16.75;;
22046;SDS011;11187;49.412;20.956;2022-09-09T14:50:52;19.48;;;18.17;;
22046;SDS011;11187;49.412;20.956;2022-09-09T14:53:39;18.00;;;16.45;;
22046;SDS011;11187;49.412;20.956;2022-09-09T14:56:14;18.60;;;17.40;;
22046;SDS011;11187;49.412;20.956;2022-09-09T14:59:12;16.08;;;15.05;;
22046;SDS011;11187;49.412;20.956;2022-09-09T15:02:07;18.77;;;17.58;;
22046;SDS011;11187;49.412;20.956;2022-09-09T15:04:43;17.10;;;15.90;;
22046;SDS011;11187;49.412;20.956;2022-09-09T15:07:29;16.80;;;15.63;;
22046;SDS011;11187;49.412;20.956;2022-09-09T15:10:17;15.63;;;14.45;;
22046;SDS011;11187;49.412;20.956;2022-09-09T15:13:11;16.73;;;15.63;;
22046;SDS011;11187;49.412;20.956;2022-09-09T15:16:16;17.83;;;16.65;;
22046;SDS011;11187;49.412;20.956;2022-09-09T15:18:51;14.70;;;13.60;;
22046;SDS011;11187;49.412;20.956;2022-09-09T15:21:46;14.82;;;13.82;;
22046;SDS011;11187;49.412;20.956;2022-09-09T15:24:20;16.42;;;15.20;;
22046;SDS011;11187;49.412;20.956;2022-09-09T15:27:06;18.08;;;16.90;;
22046;SDS011;11187;49.412;20.956;2022-09-09T15:29:40;17.15;;;16.05;;
22046;SDS011;11187;49.412;20.956;2022-09-09T15:32:27;16.55;;;15.45;;
22046;SDS011;11187;49.412;20.956;2022-09-09T15:35:00;17.42;;;16.23;;
22046;SDS011;11187;49.412;20.956;2022-09-09T15:37:46;17.75;;;16.63;;
22046;SDS011;11187;49.412;20.956;2022-09-09T15:40:20;16.52;;;15.43;;
22046;SDS011;11187;49.412;20.956;2022-09-09T15:43:13;16.52;;;15.23;;
22046;SDS011;11187;49.412;20.956;2022-09-09T15:46:20;17.63;;;16.40;;
22046;SDS011;11187;49.412;20.956;2022-09-09T15:49:05;20.35;;;18.48;;
22046;SDS011;11187;49.412;20.956;2022-09-09T15:52:02;20.27;;;18.17;;
22046;SDS011;11187;49.412;20.956;2022-09-09T15:54:36;19.80;;;17.85;;
22046;SDS011;11187;49.412;20.956;2022-09-09T15:57:30;20.50;;;18.67;;
22046;SDS011;11187;49.412;20.956;2022-09-09T16:00:24;20.90;;;18.63;;
22046;SDS011;11187;49.412;20.956;2022-09-09T16:02:58;20.30;;;18.40;;
22046;SDS011;11187;49.412;20.956;2022-09-09T16:05:50;22.05;;;19.48;;
22046;SDS011;11187;49.412;20.956;2022-09-09T16:08:24;29.30;;;25.27;;
22046;SDS011;11187;49.412;20.956;2022-09-09T16:11:14;28.90;;;25.88;;
22046;SDS011;11187;49.412;20.956;2022-09-09T16:13:52;29.60;;;25.33;;
22046;SDS011;11187;49.412;20.956;2022-09-09T16:16:33;27.98;;;23.00;;
22046;SDS011;11187;49.412;20.956;2022-09-09T16:19:15;26.98;;;23.88;;
22046;SDS011;11187;49.412;20.956;2022-09-09T16:21:48;26.98;;;23.98;;
22046;SDS011;11187;49.412;20.956;2022-09-09T16:24:36;22.13;;;20.20;;
22046;SDS011;11187;49.412;20.956;2022-09-09T16:27:09;21.45;;;19.40;;
22046;SDS011;11187;49.412;20.956;2022-09-09T16:29:56;20.92;;;19.13;;
22046;SDS011;11187;49.412;20.956;2022-09-09T16:32:29;18.65;;;17.25;;
22046;SDS011;11187;49.412;20.956;2022-09-09T16:35:16;17.92;;;16.63;;
22046;SDS011;11187;49.412;20.956;2022-09-09T16:37:49;20.05;;;18.20;;
22046;SDS011;11187;49.412;20.956;2022-09-09T16:40:44;20.23;;;18.25;;
22046;SDS011;11187;49.412;20.956;2022-09-09T16:43:17;21.63;;;19.92;;
22046;SDS011;11187;49.412;20.956;2022-09-09T16:46:18;18.75;;;17.48;;
22046;SDS011;11187;49.412;20.956;2022-09-09T16:49:13;18.38;;;16.85;;
22046;SDS011;11187;49.412;20.956;2022-09-09T16:51:49;20.38;;;18.98;;
22046;SDS011;11187;49.412;20.956;2022-09-09T16:54:37;19.30;;;18.00;;
22046;SDS011;11187;49.412;20.956;2022-09-09T16:57:10;17.67;;;16.38;;
22046;SDS011;11187;49.412;20.956;2022-09-09T17:00:04;16.33;;;15.13;;
22046;SDS011;11187;49.412;20.956;2022-09-09T17:02:58;20.02;;;18.52;;
22046;SDS011;11187;49.412;20.956;2022-09-09T17:05:31;19.30;;;17.67;;
22046;SDS011;11187;49.412;20.956;2022-09-09T17:08:19;17.90;;;16.60;;
22046;SDS011;11187;49.412;20.956;2022-09-09T17:11:13;17.15;;;15.80;;
22046;SDS011;11187;49.412;20.956;2022-09-09T17:13:48;20.30;;;18.77;;
22046;SDS011;11187;49.412;20.956;2022-09-09T17:16:43;19.50;;;18.13;;
22046;SDS011;11187;49.412;20.956;2022-09-09T17:19:16;16.80;;;15.43;;
22046;SDS011;11187;49.412;20.956;2022-09-09T17:22:11;18.88;;;16.15;;
22046;SDS011;11187;49.412;20.956;2022-09-09T17:24:44;18.83;;;17.33;;
22046;SDS011;11187;49.412;20.956;2022-09-09T17:27:31;18.23;;;16.60;;
22046;SDS011;11187;49.412;20.956;2022-09-09T17:30:07;18.77;;;17.23;;
22046;SDS011;11187;49.412;20.956;2022-09-09T17:32:55;17.60;;;16.13;;
22046;SDS011;11187;49.412;20.956;2022-09-09T17:35:29;18.25;;;16.75;;
22046;SDS011;11187;49.412;20.956;2022-09-09T17:38:16;19.23;;;17.27;;
22046;SDS011;11187;49.412;20.956;2022-09-09T17:41:01;17.52;;;15.88;;
22046;SDS011;11187;49.412;20.956;2022-09-09T17:43:56;17.30;;;16.00;;
22046;SDS011;11187;49.412;20.956;2022-09-09T17:46:50;17.85;;;16.25;;
22046;SDS011;11187;49.412;20.956;2022-09-09T17:49:44;18.70;;;17.10;;